Time;durP1;ratioP1;P1;durP2;ratioP2;P2;SDS_P1;SDS_P2;PMS_P1;PMS_P2;Temp;Humidity;BMP_temperature;BMP_pressure;BME280_temperature;BME280_humidity;BME280_pressure;Samples;Min_cycle;Max_cycle;Signal;HPM_P1;HPM_P2
2020/12/13 00:00:59;;;;;;;65.90;30.27;;;9.00;99.90;;;;;;5046091;28;38621;-77
2020/12/13 00:03:25;;;;;;;45.13;25.87;;;8.90;99.90;;;;;;5030012;28;37156;-77
2020/12/13 00:06:11;;;;;;;44.53;25.37;;;8.90;99.90;;;;;;5041291;28;37198;-78
2020/12/13 00:08:37;;;;;;;67.07;31.73;;;9.00;99.90;;;;;;4997405;28;47332;-78
2020/12/13 00:11:03;;;;;;;52.40;27.33;;;8.90;99.90;;;;;;5026045;28;37542;-77
2020/12/13 00:13:30;;;;;;;45.97;24.60;;;8.90;99.90;;;;;;5027017;28;37883;-77
2020/12/13 00:15:56;;;;;;;57.47;27.90;;;8.90;99.90;;;;;;5029342;28;37837;-77
2020/12/13 00:18:22;;;;;;;42.50;23.50;;;8.90;99.90;;;;;;5028351;28;39119;-78
2020/12/13 00:20:48;;;;;;;51.10;25.83;;;8.90;99.90;;;;;;5028490;28;38335;-78
2020/12/13 00:23:15;;;;;;;49.93;24.30;;;8.90;99.90;;;;;;5029361;28;37695;-77
2020/12/13 00:25:41;;;;;;;35.90;21.30;;;8.80;99.90;;;;;;5032937;28;36426;-78
2020/12/13 00:28:07;;;;;;;45.03;22.53;;;8.90;99.90;;;;;;5033240;28;39121;-78
2020/12/13 00:30:33;;;;;;;44.70;22.30;;;8.80;99.90;;;;;;5049646;28;37574;-78
2020/12/13 00:32:59;;;;;;;49.33;22.70;;;8.90;99.90;;;;;;5042960;28;38343;-77
2020/12/13 00:35:26;;;;;;;51.90;22.50;;;8.90;99.90;;;;;;5035867;28;36731;-77
2020/12/13 00:38:08;;;;;;;42.67;20.27;;;8.90;99.90;;;;;;5010342;28;39880;-77
2020/12/13 00:40:34;;;;;;;48.10;21.65;;;8.90;99.90;;;;;;5048089;28;47714;-78
2020/12/13 00:43:00;;;;;;;33.50;17.77;;;8.90;99.90;;;;;;5033530;28;40699;-78
2020/12/13 00:45:26;;;;;;;38.20;18.93;;;9.00;99.90;;;;;;5038214;28;38222;-77
2020/12/13 00:47:53;;;;;;;45.90;19.43;;;8.90;99.90;;;;;;5047900;28;38485;-78
2020/12/13 00:50:19;;;;;;;39.73;17.87;;;9.00;99.90;;;;;;5052147;28;37645;-78
2020/12/13 00:52:45;;;;;;;44.17;19.50;;;9.00;99.90;;;;;;5033624;28;38416;-78
2020/12/13 00:55:11;;;;;;;38.73;19.43;;;9.00;99.90;;;;;;5049533;28;36120;-78
2020/12/13 00:57:37;;;;;;;48.90;19.30;;;9.00;99.90;;;;;;5045129;28;37903;-78
2020/12/13 01:00:04;;;;;;;39.83;17.97;;;9.00;99.90;;;;;;5034756;28;37743;-77
2020/12/13 01:02:31;;;;;;;44.43;17.20;;;9.10;99.90;;;;;;5010919;28;47082;-77
2020/12/13 01:04:57;;;;;;;26.20;14.80;;;9.10;99.90;;;;;;5004322;28;36472;-78
2020/12/13 01:07:42;;;;;;;30.20;15.07;;;9.10;99.90;;;;;;5002321;28;39709;-76
2020/12/13 01:10:09;;;;;;;32.57;16.00;;;9.10;99.90;;;;;;5006691;28;37979;-77
2020/12/13 01:12:35;;;;;;;31.37;15.43;;;9.10;99.90;;;;;;5029466;28;37502;-77
2020/12/13 01:15:04;;;;;;;34.67;15.83;;;9.10;99.90;;;;;;5009528;28;37866;-77
2020/12/13 01:17:30;;;;;;;36.07;16.53;;;9.10;99.90;;;;;;5011666;28;37452;-77
2020/12/13 01:19:56;;;;;;;38.53;17.80;;;9.10;99.90;;;;;;5004139;28;37279;-78
2020/12/13 01:22:23;;;;;;;32.87;16.17;;;9.20;99.90;;;;;;5005030;28;38699;-77
2020/12/13 01:24:50;;;;;;;37.37;16.37;;;9.20;99.90;;;;;;5006807;28;37375;-77
2020/12/13 01:27:16;;;;;;;33.83;15.63;;;9.10;99.90;;;;;;5006341;28;39368;-77
2020/12/13 01:29:42;;;;;;;35.60;16.53;;;9.10;99.90;;;;;;5008581;28;37124;-77
2020/12/13 01:32:08;;;;;;;36.53;16.97;;;9.10;99.90;;;;;;5006617;28;38028;-78
2020/12/13 01:34:35;;;;;;;32.07;15.63;;;9.10;99.90;;;;;;5005673;28;37291;-77
2020/12/13 01:37:02;;;;;;;32.43;16.00;;;9.10;99.90;;;;;;5021812;28;36539;-77
2020/12/13 01:39:28;;;;;;;38.53;16.37;;;9.10;99.90;;;;;;5006426;28;47130;-78
2020/12/13 01:41:58;;;;;;;34.63;15.83;;;9.10;99.90;;;;;;5002868;28;39043;-77
2020/12/13 01:44:32;;;;;;;26.17;13.53;;;9.10;99.90;;;;;;5031105;28;36762;-77
2020/12/13 01:47:04;;;;;;;41.33;17.67;;;9.10;99.90;;;;;;5029754;28;38591;-77
2020/12/13 01:49:43;;;;;;;30.90;14.20;;;9.10;99.90;;;;;;5005898;28;49160;-78
2020/12/13 01:54:57;;;;;;;28.10;16.13;;;9.00;99.90;;;;;;5003929;28;38733;-78
2020/12/13 01:57:24;;;;;;;27.77;14.33;;;9.10;99.90;;;;;;5006626;28;39091;-78
2020/12/13 01:59:52;;;;;;;30.33;15.50;;;9.10;99.90;;;;;;5009065;28;38768;-78
2020/12/13 02:02:23;;;;;;;26.67;15.47;;;9.10;99.90;;;;;;5023921;28;38188;-77
2020/12/13 02:04:55;;;;;;;23.27;13.17;;;9.10;99.90;;;;;;5007693;28;36973;-78
2020/12/13 02:07:23;;;;;;;22.50;14.10;;;9.10;99.90;;;;;;5022526;28;38126;-78
2020/12/13 02:09:49;;;;;;;24.93;13.97;;;9.10;99.90;;;;;;5010377;28;38830;-78
2020/12/13 02:12:15;;;;;;;22.00;13.87;;;9.00;99.90;;;;;;5009199;28;37042;-78
2020/12/13 02:14:41;;;;;;;29.67;16.10;;;9.00;99.90;;;;;;5007284;28;37650;-77
2020/12/13 02:17:08;;;;;;;26.70;15.67;;;9.00;99.90;;;;;;4998979;28;37645;-78
2020/12/13 02:19:34;;;;;;;22.47;15.20;;;9.00;99.90;;;;;;5007404;28;37822;-77
2020/12/13 02:22:02;;;;;;;22.93;15.03;;;9.00;99.90;;;;;;5001574;28;36568;-78
2020/12/13 02:24:28;;;;;;;24.40;15.50;;;8.90;99.90;;;;;;5000129;28;48851;-78
2020/12/13 02:26:54;;;;;;;27.77;17.07;;;9.00;99.90;;;;;;4999051;28;39169;-77
2020/12/13 02:29:20;;;;;;;26.17;16.83;;;9.00;99.90;;;;;;5001204;28;39645;-77
2020/12/13 02:31:46;;;;;;;24.13;15.63;;;9.00;99.90;;;;;;5003468;28;36476;-77
2020/12/13 02:34:12;;;;;;;36.43;18.00;;;9.00;99.90;;;;;;5004312;28;37614;-77
2020/12/13 02:36:38;;;;;;;32.90;17.93;;;9.00;99.90;;;;;;5021987;28;37629;-78
2020/12/13 02:39:06;;;;;;;25.13;16.23;;;9.00;99.90;;;;;;5003207;28;38194;-77
2020/12/13 02:41:33;;;;;;;27.73;16.83;;;9.00;99.90;;;;;;5007487;28;38337;-77
2020/12/13 02:43:59;;;;;;;42.10;20.47;;;9.00;99.90;;;;;;5004320;28;37806;-77
2020/12/13 02:46:25;;;;;;;26.13;17.03;;;9.00;99.90;;;;;;5003064;28;38648;-77
2020/12/13 02:48:52;;;;;;;28.13;16.53;;;9.00;99.90;;;;;;5021324;28;37394;-77
2020/12/13 02:51:18;;;;;;;36.43;18.63;;;8.90;99.90;;;;;;5005281;28;36816;-78
2020/12/13 02:53:44;;;;;;;32.20;17.63;;;8.90;99.90;;;;;;5001797;28;38196;-77
2020/12/13 02:56:10;;;;;;;49.00;22.03;;;8.90;99.90;;;;;;5002173;28;39363;-77
2020/12/13 02:58:36;;;;;;;39.30;18.13;;;8.90;99.90;;;;;;5004288;28;37329;-77
2020/12/13 03:01:02;;;;;;;31.93;17.17;;;8.90;99.90;;;;;;5000803;28;38060;-77
2020/12/13 03:03:28;;;;;;;39.43;19.47;;;9.00;99.90;;;;;;4999328;28;36474;-77
2020/12/13 03:05:54;;;;;;;32.23;16.70;;;9.00;99.90;;;;;;5013612;28;37640;-77
2020/12/13 03:08:21;;;;;;;35.80;16.70;;;8.90;99.90;;;;;;5001229;28;37033;-77
2020/12/13 03:10:47;;;;;;;20.30;13.47;;;9.00;99.90;;;;;;5000076;28;37376;-77
2020/12/13 03:13:13;;;;;;;28.30;15.47;;;9.00;99.90;;;;;;4997834;28;36364;-77
2020/12/13 03:15:39;;;;;;;31.73;16.20;;;8.90;99.90;;;;;;5000877;28;37630;-77
2020/12/13 03:18:05;;;;;;;36.33;17.77;;;8.90;99.90;;;;;;4997622;28;38556;-77
2020/12/13 03:20:31;;;;;;;35.63;16.87;;;8.90;99.90;;;;;;4997128;28;38261;-77
2020/12/13 03:22:57;;;;;;;33.10;17.93;;;8.90;99.90;;;;;;5000812;28;34754;-77
2020/12/13 03:25:23;;;;;;;28.70;16.33;;;8.90;99.90;;;;;;4993034;28;38662;-77
2020/12/13 03:27:49;;;;;;;32.63;18.17;;;8.90;99.90;;;;;;5000941;28;38895;-78
2020/12/13 03:30:15;;;;;;;31.53;17.30;;;8.90;99.90;;;;;;5012158;28;37918;-77
2020/12/13 03:32:41;;;;;;;32.13;17.27;;;8.90;99.90;;;;;;5008546;28;37085;-77
2020/12/13 03:35:07;;;;;;;34.47;18.10;;;8.90;99.90;;;;;;5004903;28;37642;-77
2020/12/13 03:37:33;;;;;;;29.93;17.33;;;8.90;99.90;;;;;;5003377;28;38321;-77
2020/12/13 03:39:59;;;;;;;28.00;15.67;;;8.90;99.90;;;;;;5015561;28;37706;-77
2020/12/13 03:42:26;;;;;;;35.27;18.40;;;8.90;99.90;;;;;;5004755;28;37527;-77
2020/12/13 03:44:52;;;;;;;42.83;22.17;;;8.90;99.90;;;;;;5003893;28;39412;-77
2020/12/13 03:47:18;;;;;;;32.37;18.90;;;9.00;99.90;;;;;;5000223;28;38683;-77
2020/12/13 03:49:44;;;;;;;38.10;19.10;;;9.00;99.90;;;;;;5005056;28;38186;-75
2020/12/13 03:52:10;;;;;;;33.10;18.70;;;8.90;99.90;;;;;;5000373;28;36088;-76
2020/12/13 03:54:36;;;;;;;31.90;19.30;;;9.00;99.90;;;;;;5002488;28;37737;-76
2020/12/13 03:57:02;;;;;;;32.57;17.37;;;9.00;99.90;;;;;;5004949;28;36960;-76
2020/12/13 03:59:28;;;;;;;32.13;18.00;;;8.90;99.90;;;;;;5003380;28;37454;-76
2020/12/13 04:01:54;;;;;;;24.53;15.93;;;8.90;99.90;;;;;;5001861;28;37340;-75
2020/12/13 04:04:20;;;;;;;30.27;17.23;;;8.90;99.90;;;;;;4999299;28;39253;-76
2020/12/13 04:06:46;;;;;;;38.23;19.50;;;8.90;99.90;;;;;;5003245;28;37799;-76
2020/12/13 04:09:12;;;;;;;30.13;17.27;;;8.90;99.90;;;;;;4998170;28;38895;-76
2020/12/13 04:11:39;;;;;;;27.97;16.87;;;8.90;99.90;;;;;;5000174;28;36125;-78
2020/12/13 04:14:05;;;;;;;30.30;17.53;;;8.90;99.90;;;;;;5002132;28;37630;-76
2020/12/13 04:16:31;;;;;;;30.17;18.97;;;8.90;99.90;;;;;;4999006;28;37312;-76
2020/12/13 04:18:57;;;;;;;27.50;18.40;;;9.00;99.90;;;;;;4999717;28;37866;-76
2020/12/13 04:21:25;;;;;;;35.83;18.50;;;9.00;99.90;;;;;;5010521;28;35445;-76
2020/12/13 04:23:51;;;;;;;37.13;21.03;;;9.00;99.90;;;;;;4999550;28;38630;-76
2020/12/13 04:26:17;;;;;;;29.93;18.70;;;9.00;99.90;;;;;;5015450;28;37335;-76
2020/12/13 04:28:43;;;;;;;38.90;20.60;;;9.00;99.90;;;;;;5001513;28;37153;-76
2020/12/13 04:31:10;;;;;;;38.70;20.57;;;9.00;99.90;;;;;;4998065;28;37050;-77
2020/12/13 04:33:36;;;;;;;41.63;22.20;;;9.00;99.90;;;;;;5014265;28;38068;-76
2020/12/13 04:36:05;;;;;;;42.40;21.40;;;9.00;99.90;;;;;;5013035;28;38876;-76
2020/12/13 04:38:31;;;;;;;44.40;22.00;;;9.00;99.90;;;;;;4999908;28;39262;-76
2020/12/13 04:40:59;;;;;;;41.87;21.23;;;9.00;99.90;;;;;;4998577;28;37221;-76
2020/12/13 04:43:26;;;;;;;43.07;22.87;;;9.10;99.90;;;;;;5002622;28;39075;-76
2020/12/13 04:45:52;;;;;;;33.13;18.97;;;9.00;99.90;;;;;;5001762;28;37135;-76
2020/12/13 04:48:20;;;;;;;35.23;19.43;;;9.00;99.90;;;;;;5014762;28;39411;-76
2020/12/13 04:50:49;;;;;;;40.33;20.57;;;9.00;99.90;;;;;;5003486;28;37403;-75
2020/12/13 04:53:17;;;;;;;37.17;21.17;;;9.00;99.90;;;;;;5002181;28;38214;-74
2020/12/13 04:55:55;;;;;;;35.53;20.30;;;9.00;99.90;;;;;;5005182;28;36496;-76
2020/12/13 04:58:26;;;;;;;48.23;21.90;;;9.00;99.90;;;;;;5000664;28;37735;-75
2020/12/13 05:00:57;;;;;;;49.90;24.37;;;8.90;99.90;;;;;;4999183;28;37239;-76
2020/12/13 05:03:25;;;;;;;39.73;21.23;;;8.90;99.90;;;;;;5003295;28;39504;-76
2020/12/13 05:05:52;;;;;;;29.87;18.83;;;8.90;99.90;;;;;;5006340;28;37371;-76
2020/12/13 05:08:18;;;;;;;33.60;19.20;;;8.80;99.90;;;;;;5001048;28;37954;-76
2020/12/13 05:10:44;;;;;;;45.97;24.43;;;8.80;99.90;;;;;;5015737;28;37486;-76
2020/12/13 05:13:11;;;;;;;38.13;23.10;;;8.70;99.90;;;;;;5002818;28;39183;-76
2020/12/13 05:15:38;;;;;;;44.90;21.17;;;8.70;99.90;;;;;;5008742;28;38261;-75
2020/12/13 05:18:05;;;;;;;40.07;20.50;;;8.70;99.90;;;;;;5005841;28;36934;-76
2020/12/13 05:20:33;;;;;;;38.07;19.83;;;8.70;99.90;;;;;;4999762;28;37330;-75
2020/12/13 05:23:01;;;;;;;41.00;22.57;;;8.70;99.90;;;;;;5001735;28;38646;-74
2020/12/13 05:25:32;;;;;;;34.53;17.97;;;8.70;99.90;;;;;;5015903;28;47600;-77
2020/12/13 05:28:04;;;;;;;45.30;18.00;;;8.70;99.90;;;;;;5006175;28;37633;-78
2020/12/13 05:30:43;;;;;;;33.10;17.45;;;8.60;99.90;;;;;;5003610;28;46476;-78
2020/12/13 05:33:18;;;;;;;43.50;20.23;;;8.50;99.90;;;;;;5003986;28;39190;-78
2020/12/13 05:35:44;;;;;;;46.00;22.07;;;8.40;99.90;;;;;;5009320;28;37095;-75
2020/12/13 05:38:13;;;;;;;45.90;22.27;;;8.30;99.90;;;;;;5002343;28;37149;-78
2020/12/13 05:40:40;;;;;;;32.97;18.60;;;8.30;99.90;;;;;;5003574;28;36718;-78
2020/12/13 05:43:12;;;;;;;43.20;19.50;;;8.30;99.90;;;;;;5005671;28;39122;-78
2020/12/13 05:48:36;;;;;;;49.73;24.83;;;8.10;99.90;;;;;;5003240;28;38228;-78
2020/12/13 05:53:54;;;;;;;37.00;21.30;;;8.00;99.90;;;;;;4998394;28;39189;-78
2020/12/13 05:56:22;;;;;;;50.40;22.70;;;8.00;99.90;;;;;;5001247;28;40689;-78
2020/12/13 05:58:52;;;;;;;38.37;20.77;;;8.00;99.90;;;;;;5004113;28;38196;-79
2020/12/13 06:01:23;;;;;;;35.20;18.80;;;8.10;99.90;;;;;;5001378;28;36963;-78
2020/12/13 06:03:51;;;;;;;33.37;18.87;;;8.10;99.90;;;;;;5000767;28;38340;-78
2020/12/13 06:06:26;;;;;;;35.77;19.23;;;8.10;99.90;;;;;;5004444;28;38065;-78
2020/12/13 06:09:11;;;;;;;40.20;19.73;;;8.10;99.90;;;;;;5001326;28;38695;-78
2020/12/13 06:11:46;;;;;;;30.40;18.03;;;8.20;99.90;;;;;;5019227;28;47396;-78
2020/12/13 06:14:18;;;;;;;42.17;20.60;;;8.20;99.90;;;;;;5000148;28;39172;-78
2020/12/13 06:16:45;;;;;;;26.90;15.55;;;8.20;99.90;;;;;;5016762;28;37288;-78
2020/12/13 06:19:14;;;;;;;27.60;16.47;;;8.20;99.90;;;;;;5002541;28;38543;-78
2020/12/13 06:21:44;;;;;;;29.80;16.10;;;8.20;99.90;;;;;;5014562;28;36051;-78
2020/12/13 06:24:12;;;;;;;33.07;17.27;;;8.20;99.90;;;;;;5003582;28;37745;-78
2020/12/13 06:26:38;;;;;;;30.40;16.60;;;8.20;99.90;;;;;;5009257;28;36999;-78
2020/12/13 06:29:05;;;;;;;26.13;14.37;;;8.20;99.90;;;;;;5000064;28;38235;-78
2020/12/13 06:31:37;;;;;;;20.63;14.00;;;8.10;99.90;;;;;;5003544;28;36618;-78
2020/12/13 06:34:04;;;;;;;32.10;14.63;;;8.20;99.90;;;;;;5002489;28;38520;-77
2020/12/13 06:36:36;;;;;;;25.50;15.90;;;8.10;99.90;;;;;;5016281;28;37592;-78
2020/12/13 06:39:16;;;;;;;29.33;14.93;;;8.10;99.90;;;;;;5000012;28;38725;-78
2020/12/13 06:41:44;;;;;;;24.00;13.63;;;8.10;99.90;;;;;;5000459;28;35616;-78
2020/12/13 06:44:11;;;;;;;22.60;13.27;;;8.10;99.90;;;;;;5000483;28;38199;-77
2020/12/13 06:46:40;;;;;;;26.37;15.03;;;8.00;99.90;;;;;;5004308;28;37734;-78
2020/12/13 06:49:09;;;;;;;29.77;15.07;;;8.00;99.90;;;;;;5002726;28;38200;-78
2020/12/13 06:51:37;;;;;;;33.37;14.97;;;7.90;99.90;;;;;;5001968;28;38140;-78
2020/12/13 06:54:05;;;;;;;27.07;16.70;;;7.90;99.90;;;;;;5006238;28;38586;-78
2020/12/13 06:56:32;;;;;;;27.10;14.67;;;7.80;99.90;;;;;;5002086;28;38083;-78
2020/12/13 06:59:00;;;;;;;36.90;16.10;;;7.60;99.90;;;;;;4998872;28;38944;-78
2020/12/13 07:01:28;;;;;;;30.70;15.00;;;7.50;99.90;;;;;;5001614;28;37613;-78
2020/12/13 07:03:57;;;;;;;32.83;15.03;;;7.50;99.90;;;;;;5012679;28;38119;-78
2020/12/13 07:06:40;;;;;;;31.37;17.17;;;7.50;99.90;;;;;;5016886;28;38445;-78
2020/12/13 07:09:07;;;;;;;33.60;15.57;;;7.50;99.90;;;;;;5016757;28;37138;-78
2020/12/13 07:11:33;;;;;;;35.13;15.33;;;7.50;99.90;;;;;;5009182;28;36506;-78
2020/12/13 07:14:04;;;;;;;39.97;17.73;;;7.40;99.90;;;;;;5007061;28;39030;-78
2020/12/13 07:19:09;;;;;;;26.23;12.90;;;7.20;99.90;;;;;;5000585;28;36820;-78
2020/12/13 07:21:37;;;;;;;31.03;13.77;;;7.20;99.90;;;;;;5017055;28;47659;-78
2020/12/13 07:24:05;;;;;;;29.00;12.97;;;7.20;99.90;;;;;;5005932;28;38666;-78
2020/12/13 07:26:33;;;;;;;36.03;15.03;;;7.10;99.90;;;;;;5019567;28;39817;-78
2020/12/13 07:29:00;;;;;;;25.70;12.90;;;7.10;99.90;;;;;;5020538;28;36880;-78
2020/12/13 07:31:35;;;;;;;32.20;13.73;;;7.10;99.90;;;;;;5001424;28;37309;-78
2020/12/13 07:34:06;;;;;;;26.23;12.70;;;7.00;99.90;;;;;;5006064;28;38007;-78
2020/12/13 07:36:33;;;;;;;26.63;11.40;;;7.00;99.90;;;;;;5022702;28;47329;-78
2020/12/13 07:39:07;;;;;;;25.67;11.37;;;6.90;99.90;;;;;;5007824;28;37582;-78
2020/12/13 07:41:33;;;;;;;27.50;11.10;;;6.80;99.90;;;;;;5021862;28;47266;-78
2020/12/13 07:44:05;;;;;;;27.97;10.37;;;6.80;99.90;;;;;;5007402;28;37562;-77
2020/12/13 07:46:33;;;;;;;30.13;11.70;;;6.70;99.90;;;;;;5018703;28;45645;-77
2020/12/13 07:49:04;;;;;;;21.87;11.87;;;6.60;99.90;;;;;;5024972;28;37239;-78
2020/12/13 07:51:32;;;;;;;24.83;10.70;;;6.60;99.90;;;;;;5012610;28;47104;-78
2020/12/13 07:54:10;;;;;;;33.27;12.80;;;6.60;99.90;;;;;;5016939;28;37910;-77
2020/12/13 07:56:36;;;;;;;34.43;12.50;;;6.50;99.90;;;;;;5019247;28;49514;-78
2020/12/13 07:59:17;;;;;;;28.97;11.53;;;6.50;99.90;;;;;;5004184;28;38583;-78
2020/12/13 08:01:45;;;;;;;41.00;13.67;;;6.50;99.90;;;;;;5007612;28;37304;-78
2020/12/13 08:04:13;;;;;;;29.60;11.33;;;6.50;99.90;;;;;;5021599;28;38099;-78
2020/12/13 08:06:39;;;;;;;33.80;13.23;;;6.50;99.90;;;;;;5006454;28;38449;-78
2020/12/13 08:09:10;;;;;;;28.43;11.27;;;6.50;99.90;;;;;;5019733;28;38224;-78
2020/12/13 08:11:36;;;;;;;28.43;12.00;;;6.40;99.90;;;;;;5025935;28;38231;-78
2020/12/13 08:14:05;;;;;;;36.57;14.17;;;6.40;99.90;;;;;;5015003;28;38165;-78
2020/12/13 08:16:32;;;;;;;33.23;11.60;;;6.40;99.90;;;;;;5007777;28;39843;-78
2020/12/13 08:19:10;;;;;;;30.97;12.67;;;6.30;99.90;;;;;;5001948;28;38487;-78
2020/12/13 08:21:53;;;;;;;30.10;12.23;;;6.30;99.90;;;;;;5016283;28;47185;-78
2020/12/13 08:24:20;;;;;;;30.60;12.25;;;6.40;99.90;;;;;;5000855;28;39142;-78
2020/12/13 08:26:48;;;;;;;32.93;12.33;;;6.40;99.90;;;;;;5004516;28;38417;-78
2020/12/13 08:29:15;;;;;;;33.43;13.70;;;6.40;99.90;;;;;;5013599;28;36790;-78
2020/12/13 08:31:42;;;;;;;28.60;12.83;;;6.40;99.90;;;;;;5005775;28;38398;-78
2020/12/13 08:34:08;;;;;;;28.13;12.40;;;6.40;99.90;;;;;;5004814;28;37545;-78
2020/12/13 08:36:35;;;;;;;31.80;13.37;;;6.40;99.90;;;;;;4998342;28;38678;-78
2020/12/13 08:39:08;;;;;;;27.83;14.37;;;6.30;99.90;;;;;;5005301;28;39683;-78
2020/12/13 08:44:38;;;;;;;29.87;13.70;;;6.30;99.90;;;;;;4995382;28;38868;-77
2020/12/13 08:47:09;;;;;;;34.13;17.37;;;6.40;99.90;;;;;;5005489;28;38644;-78
2020/12/13 08:49:38;;;;;;;37.10;17.70;;;6.40;99.90;;;;;;5017365;28;40282;-78
2020/12/13 08:52:24;;;;;;;31.73;15.57;;;6.40;99.90;;;;;;5001609;28;36102;-79
2020/12/13 08:54:53;;;;;;;26.67;13.50;;;6.40;99.90;;;;;;5037448;28;36977;-78
2020/12/13 08:57:33;;;;;;;31.80;15.47;;;6.40;99.90;;;;;;5008016;28;37232;-78
2020/12/13 09:00:13;;;;;;;30.73;16.17;;;6.50;99.90;;;;;;5015241;28;37085;-78
2020/12/13 09:02:53;;;;;;;30.03;15.37;;;6.50;99.90;;;;;;5016811;28;47309;-77
2020/12/13 09:05:28;;;;;;;31.17;14.63;;;6.50;99.90;;;;;;5015973;28;38894;-77
2020/12/13 09:07:56;;;;;;;32.03;15.53;;;6.50;99.90;;;;;;5008237;28;37569;-78
2020/12/13 09:10:23;;;;;;;29.87;14.97;;;6.50;99.90;;;;;;5012142;28;39210;-77
2020/12/13 09:12:49;;;;;;;27.83;14.23;;;6.60;99.90;;;;;;5009481;28;39055;-76
2020/12/13 09:15:20;;;;;;;28.30;14.37;;;6.60;99.90;;;;;;5015463;28;38701;-77
2020/12/13 09:17:54;;;;;;;35.00;15.40;;;6.60;99.90;;;;;;5016622;28;38545;-77
2020/12/13 09:20:25;;;;;;;30.70;14.97;;;6.60;99.90;;;;;;5011721;28;38596;-74
2020/12/13 09:23:11;;;;;;;29.17;15.63;;;6.60;99.90;;;;;;5019408;28;36648;-77
2020/12/13 09:25:42;;;;;;;39.83;16.23;;;6.70;99.90;;;;;;5001313;28;48311;-77
2020/12/13 09:28:10;;;;;;;26.87;13.70;;;6.70;99.90;;;;;;5001811;28;39661;-78
2020/12/13 09:30:37;;;;;;;31.70;14.47;;;6.70;99.90;;;;;;5009530;28;36994;-78
2020/12/13 09:33:04;;;;;;;26.83;13.93;;;6.70;99.90;;;;;;5005665;28;37398;-77
2020/12/13 09:35:33;;;;;;;25.60;14.57;;;6.70;99.90;;;;;;5009061;28;39519;-78
2020/12/13 09:38:01;;;;;;;28.23;14.67;;;6.70;99.90;;;;;;4996835;28;38405;-77
2020/12/13 09:40:27;;;;;;;31.03;13.47;;;6.80;99.90;;;;;;5019270;28;48685;-78
2020/12/13 09:42:54;;;;;;;27.80;13.97;;;6.80;99.90;;;;;;5006807;28;36796;-78
2020/12/13 09:45:22;;;;;;;30.23;13.33;;;6.80;99.90;;;;;;5012931;28;37456;-78
2020/12/13 09:47:49;;;;;;;28.43;13.10;;;6.80;99.90;;;;;;5031073;28;38817;-77
2020/12/13 09:50:17;;;;;;;24.63;13.63;;;6.80;99.90;;;;;;5020126;28;37239;-78
2020/12/13 09:52:43;;;;;;;28.10;14.30;;;6.90;99.90;;;;;;5008210;28;36397;-79
2020/12/13 09:55:10;;;;;;;27.07;13.50;;;6.90;99.90;;;;;;5005514;28;39929;-77
2020/12/13 09:57:37;;;;;;;27.80;13.73;;;6.90;99.90;;;;;;5038578;28;38618;-77
2020/12/13 10:00:05;;;;;;;29.93;12.47;;;7.00;99.90;;;;;;5009098;28;38385;-77
2020/12/13 10:02:31;;;;;;;23.97;13.20;;;7.00;99.90;;;;;;5003490;28;37410;-79
2020/12/13 10:04:57;;;;;;;24.67;12.43;;;7.00;99.90;;;;;;5001783;28;39725;-78
2020/12/13 10:07:31;;;;;;;17.97;11.17;;;7.00;99.90;;;;;;5003688;28;38338;-77
2020/12/13 10:09:58;;;;;;;22.37;11.17;;;7.10;99.90;;;;;;5005845;28;37443;-78
2020/12/13 10:12:24;;;;;;;28.80;11.40;;;7.10;99.90;;;;;;5006328;28;37208;-77
2020/12/13 10:14:50;;;;;;;28.90;11.30;;;7.10;99.90;;;;;;4994021;28;39189;-77
2020/12/13 10:17:16;;;;;;;20.90;10.67;;;7.10;99.90;;;;;;5005541;28;38933;-78
2020/12/13 10:19:42;;;;;;;21.47;10.77;;;7.10;99.90;;;;;;5009692;28;37251;-78
2020/12/13 10:22:08;;;;;;;20.70;11.90;;;7.10;99.90;;;;;;5031628;28;36301;-78
2020/12/13 10:24:34;;;;;;;26.80;12.27;;;7.20;99.90;;;;;;5023350;28;38233;-78
2020/12/13 10:27:00;;;;;;;28.97;11.47;;;7.20;99.90;;;;;;5005895;28;38642;-78
2020/12/13 10:29:26;;;;;;;27.77;10.93;;;7.30;99.90;;;;;;5002616;28;47405;-77
2020/12/13 10:31:53;;;;;;;23.50;11.43;;;7.40;99.90;;;;;;5013896;28;36882;-77
2020/12/13 10:34:19;;;;;;;24.27;10.53;;;7.40;99.90;;;;;;5000429;28;39110;-76
2020/12/13 10:36:45;;;;;;;28.33;11.33;;;7.40;99.90;;;;;;5004091;28;38038;-77
2020/12/13 10:39:11;;;;;;;28.30;11.67;;;7.50;99.90;;;;;;5009683;28;39329;-79
2020/12/13 10:41:38;;;;;;;24.47;11.90;;;7.50;99.90;;;;;;5013569;28;37103;-77
2020/12/13 10:44:04;;;;;;;26.83;11.67;;;7.50;99.90;;;;;;5024668;28;38876;-78
2020/12/13 10:46:31;;;;;;;25.40;11.70;;;7.50;99.90;;;;;;5025602;28;38619;-77
2020/12/13 10:48:57;;;;;;;33.17;12.13;;;7.50;99.90;;;;;;5019869;28;37907;-77
2020/12/13 10:51:23;;;;;;;27.30;11.60;;;7.50;99.90;;;;;;5017334;28;38480;-77
2020/12/13 10:53:49;;;;;;;23.00;10.43;;;7.50;99.90;;;;;;5024022;28;39362;-77
2020/12/13 10:56:15;;;;;;;23.40;11.03;;;7.50;99.90;;;;;;5022255;28;38644;-77
2020/12/13 10:58:42;;;;;;;25.43;10.13;;;7.60;99.90;;;;;;5036511;28;37568;-77
2020/12/13 11:01:12;;;;;;;23.50;10.53;;;7.70;99.90;;;;;;5021863;28;38263;-77
2020/12/13 11:03:39;;;;;;;26.33;11.47;;;7.70;99.90;;;;;;5020141;28;39037;-77
2020/12/13 11:06:10;;;;;;;24.37;10.80;;;7.70;99.90;;;;;;5026205;28;38711;-77
2020/12/13 11:08:36;;;;;;;25.13;9.53;;;7.80;99.90;;;;;;5021641;28;38428;-77
2020/12/13 11:11:03;;;;;;;27.60;10.57;;;7.80;99.90;;;;;;5020366;28;36433;-78
2020/12/13 11:13:29;;;;;;;26.33;10.03;;;7.80;99.90;;;;;;5022161;28;38783;-78
2020/12/13 11:15:55;;;;;;;32.50;10.87;;;7.90;99.90;;;;;;5037048;28;37624;-78
2020/12/13 11:18:21;;;;;;;24.50;9.67;;;7.90;99.90;;;;;;5023819;28;37865;-77
2020/12/13 11:20:47;;;;;;;25.73;8.63;;;8.00;99.90;;;;;;5040135;28;37359;-78
2020/12/13 11:23:13;;;;;;;26.53;9.87;;;8.00;99.90;;;;;;5024058;28;40088;-78
2020/12/13 11:25:39;;;;;;;19.97;8.93;;;8.10;99.90;;;;;;5039338;28;37453;-78
2020/12/13 11:28:07;;;;;;;27.03;9.47;;;8.00;99.90;;;;;;5020968;28;37901;-77
2020/12/13 11:30:33;;;;;;;24.70;9.10;;;8.00;99.90;;;;;;5023361;28;35953;-77
2020/12/13 11:33:00;;;;;;;22.80;9.50;;;8.00;99.90;;;;;;5024606;28;37848;-77
2020/12/13 11:35:26;;;;;;;22.13;9.27;;;8.00;99.90;;;;;;5038576;28;38121;-77
2020/12/13 11:37:52;;;;;;;23.00;9.03;;;8.00;99.90;;;;;;5053950;28;38249;-78
2020/12/13 11:40:19;;;;;;;20.47;9.03;;;8.00;99.90;;;;;;5020998;28;37847;-78
2020/12/13 11:42:45;;;;;;;23.07;9.33;;;8.00;99.90;;;;;;5031979;28;38946;-78
2020/12/13 11:45:11;;;;;;;27.00;9.07;;;8.00;99.90;;;;;;5000236;28;39212;-77
2020/12/13 11:47:38;;;;;;;20.23;7.63;;;8.00;99.90;;;;;;5015845;28;38621;-77
2020/12/13 11:50:05;;;;;;;19.27;7.57;;;8.00;99.90;;;;;;4999779;28;37118;-77
2020/12/13 11:52:32;;;;;;;17.23;6.50;;;8.10;99.90;;;;;;5000634;28;39023;-78
2020/12/13 11:54:58;;;;;;;14.13;6.17;;;8.10;99.90;;;;;;5008904;28;38110;-77
2020/12/13 11:57:24;;;;;;;17.60;5.93;;;8.10;99.90;;;;;;5003452;28;39006;-77
2020/12/13 11:59:50;;;;;;;17.23;5.07;;;8.10;99.90;;;;;;5007374;28;37202;-77
2020/12/13 12:02:16;;;;;;;14.67;4.57;;;8.10;99.90;;;;;;5005494;28;39164;-77
2020/12/13 12:04:42;;;;;;;8.83;4.67;;;8.20;99.90;;;;;;5001401;28;37252;-77
2020/12/13 12:07:08;;;;;;;18.47;6.00;;;8.20;99.90;;;;;;5016228;28;37732;-79
2020/12/13 12:09:35;;;;;;;11.60;4.97;;;8.30;99.90;;;;;;5008633;28;36812;-78
2020/12/13 12:12:01;;;;;;;12.43;4.63;;;8.30;99.90;;;;;;5006685;28;38926;-78
2020/12/13 12:14:27;;;;;;;18.70;5.30;;;8.30;99.90;;;;;;5030412;28;47223;-78
2020/12/13 12:16:53;;;;;;;16.20;5.10;;;8.40;99.90;;;;;;5026496;28;38125;-78
2020/12/13 12:19:19;;;;;;;13.60;4.87;;;8.50;99.90;;;;;;5023365;28;37110;-78
2020/12/13 12:21:47;;;;;;;13.50;5.30;;;8.50;99.90;;;;;;5026322;28;38915;-78
2020/12/13 12:24:17;;;;;;;21.50;4.93;;;8.50;99.90;;;;;;5034834;28;37396;-78
2020/12/13 12:26:44;;;;;;;15.20;5.27;;;8.50;99.90;;;;;;5023139;28;37653;-78
2020/12/13 12:29:10;;;;;;;9.97;3.87;;;8.60;99.90;;;;;;5017678;28;38659;-79
2020/12/13 12:31:36;;;;;;;17.93;5.33;;;8.60;99.90;;;;;;5029207;28;41651;-78
2020/12/13 12:34:03;;;;;;;13.20;4.53;;;8.50;99.90;;;;;;5024332;28;37451;-78
2020/12/13 12:36:29;;;;;;;17.00;4.80;;;8.50;99.90;;;;;;5024272;28;38667;-77
2020/12/13 12:38:56;;;;;;;15.93;4.83;;;8.50;99.90;;;;;;5018739;28;37144;-78
2020/12/13 12:41:23;;;;;;;11.87;4.00;;;8.40;99.90;;;;;;5024530;28;38571;-78
2020/12/13 12:43:50;;;;;;;17.00;5.23;;;8.40;99.90;;;;;;5017405;28;37537;-77
2020/12/13 12:46:18;;;;;;;14.57;5.00;;;8.40;99.90;;;;;;5020335;28;37432;-78
2020/12/13 12:48:47;;;;;;;18.67;4.83;;;8.40;99.90;;;;;;5023452;28;37079;-77
2020/12/13 12:51:16;;;;;;;11.60;4.70;;;8.40;99.90;;;;;;5022550;28;38570;-78
2020/12/13 12:53:42;;;;;;;13.27;5.37;;;8.50;99.90;;;;;;5019459;28;38597;-78
2020/12/13 12:56:10;;;;;;;14.03;3.73;;;8.30;99.90;;;;;;5026802;28;38833;-77